createdAt,value
2018-10-21T00:00:07.271Z,60.28
2018-10-21T00:01:07.301Z,60.31
2018-10-21T00:02:07.330Z,60.41
2018-10-21T00:03:07.464Z,60.41
2018-10-21T00:04:07.382Z,60.22
2018-10-21T00:05:07.404Z,60.71
2018-10-21T00:06:07.180Z,60.41
2018-10-21T00:07:07.465Z,60.61
2018-10-21T00:08:07.489Z,60.31
2018-10-21T00:09:07.277Z,60.61
2018-10-21T00:10:07.288Z,60.61
2018-10-21T00:11:07.572Z,60.71
2018-10-21T00:12:07.340Z,60.71
2018-10-21T00:13:07.626Z,60.71
2018-10-21T00:14:07.647Z,60.71
2018-10-21T00:15:07.501Z,60.71
2018-10-21T00:16:07.699Z,60.71
2018-10-21T00:17:07.726Z,60.71
2018-10-21T00:18:07.757Z,60.41
2018-10-21T00:19:07.779Z,60.8
2018-10-21T00:20:07.806Z,60.41
2018-10-21T00:21:07.642Z,60.61
2018-10-21T00:22:07.862Z,60.89
2018-10-21T00:23:07.636Z,60.8
2018-10-21T00:24:07.917Z,60.8
2018-10-21T00:25:07.943Z,60.71
2018-10-21T00:26:07.969Z,60.61
2018-10-21T00:27:08.164Z,60.41
2018-10-21T00:28:07.772Z,60.31
2018-10-21T00:29:07.800Z,60.8
2018-10-21T00:30:07.828Z,60.61
2018-10-21T00:31:08.105Z,60.8
2018-10-21T00:32:07.880Z,60.8
2018-10-21T00:33:08.313Z,60.61
2018-10-21T00:34:07.931Z,60.71
2018-10-21T00:35:07.973Z,60.89
2018-10-21T00:36:08.242Z,60.89
2018-10-21T00:37:08.268Z,60.8
2018-10-21T00:38:08.293Z,61.47
2018-10-21T00:39:08.414Z,61.19
2018-10-21T00:40:08.345Z,61.38
2018-10-21T00:41:08.371Z,61.19
2018-10-21T00:42:08.400Z,60.89
2018-10-21T00:43:08.174Z,61.09
2018-10-21T00:44:08.204Z,60.89
2018-10-21T00:45:08.665Z,61.19
2018-10-21T00:46:08.502Z,60.71
2018-10-21T00:47:08.284Z,60.61
2018-10-21T00:48:08.556Z,60.61
2018-10-21T00:49:08.591Z,60.22
2018-10-21T00:50:08.612Z,60.8
2018-10-21T00:51:08.409Z,60.89
2018-10-21T00:52:08.666Z,60.22
2018-10-21T00:53:08.693Z,60.31
2018-10-21T00:54:08.471Z,60.61
2018-10-21T00:55:08.750Z,60.41
2018-10-21T00:56:08.526Z,60.51
2018-10-21T00:57:08.573Z,60.61
2018-10-21T00:58:08.834Z,60.71
2018-10-21T00:59:08.605Z,60.71
2018-10-21T01:00:08.883Z,60.71
2018-10-21T01:01:08.656Z,60.61
2018-10-21T01:02:08.939Z,60.71
2018-10-21T01:03:08.725Z,60.8
2018-10-21T01:04:09.144Z,60.41
2018-10-21T01:05:09.012Z,60.71
2018-10-21T01:06:09.044Z,60.61
2018-10-21T01:07:09.064Z,60.61
2018-10-21T01:08:09.093Z,60.61
2018-10-21T01:09:09.268Z,60.61
2018-10-21T01:10:09.149Z,60.8
2018-10-21T01:11:09.175Z,60.31
2018-10-21T01:12:08.953Z,60.99
2018-10-21T01:13:09.241Z,60.89
2018-10-21T01:14:09.258Z,60.89
2018-10-21T01:15:09.109Z,60.31
2018-10-21T01:16:09.311Z,60.51
2018-10-21T01:17:09.342Z,61.19
2018-10-21T01:18:09.362Z,61.19
2018-10-21T01:19:09.388Z,61.38
2018-10-21T01:20:09.420Z,60.89
2018-10-21T01:21:09.559Z,61.19
2018-10-21T01:22:09.216Z,61.19
2018-10-21T01:23:09.493Z,61.16
2018-10-21T01:24:09.272Z,61.09
2018-10-21T01:25:09.550Z,60.99
2018-10-21T01:26:09.584Z,60.86
2018-10-21T01:27:09.770Z,61.67
2018-10-21T01:28:09.636Z,61.06
2018-10-21T01:29:09.406Z,61.57
2018-10-21T01:30:09.431Z,61.47
2018-10-21T01:31:09.713Z,61.57
2018-10-21T01:32:09.738Z,61.38
2018-10-21T01:33:09.849Z,61.54
2018-10-21T01:34:09.793Z,61.44
2018-10-21T01:35:09.827Z,61.28
2018-10-21T01:36:09.634Z,61.54
2018-10-21T01:37:09.747Z,61.25
2018-10-21T01:38:09.782Z,61.47
2018-10-21T01:39:10.117Z,61.54
2018-10-21T01:40:09.698Z,61.57
2018-10-21T01:41:09.731Z,61.77
2018-10-21T01:42:09.752Z,61.74
2018-10-21T01:43:09.779Z,61.77
2018-10-21T01:44:10.457Z,61.77
2018-10-21T01:45:09.865Z,61.93
2018-10-21T01:46:10.114Z,61.67
2018-10-21T01:47:09.884Z,61.54
2018-10-21T01:48:10.166Z,61.74
2018-10-21T01:49:09.936Z,62.02
2018-10-21T01:50:09.964Z,62.02
2018-10-21T01:51:10.390Z,62.02
2018-10-21T01:52:10.274Z,62.02
2018-10-21T01:53:10.296Z,62.12
2018-10-21T01:54:10.077Z,62.15
2018-10-21T01:55:10.350Z,62.22
2018-10-21T01:56:10.124Z,62.31
2018-10-21T01:57:10.256Z,61.83
2018-10-21T01:58:10.431Z,62.12
2018-10-21T01:59:10.455Z,62.12
2018-10-21T02:00:10.237Z,61.74
2018-10-21T02:01:10.510Z,62.02
2018-10-21T02:02:10.534Z,61.96
2018-10-21T02:03:10.389Z,62.02
2018-10-21T02:04:10.335Z,61.83
2018-10-21T02:05:10.367Z,62.31
2018-10-21T02:06:10.396Z,62.12
2018-10-21T02:07:10.423Z,62.05
2018-10-21T02:08:10.449Z,62.12
2018-10-21T02:09:10.948Z,62.34
2018-10-21T02:10:10.499Z,62.31
2018-10-21T02:11:10.526Z,62.41
2018-10-21T02:12:10.809Z,61.93
2018-10-21T02:13:10.883Z,62.12
2018-10-21T02:14:10.903Z,61.93
2018-10-21T02:15:11.121Z,62.22
2018-10-21T02:16:10.911Z,61.93
2018-10-21T02:17:10.689Z,62.51
2018-10-21T02:18:10.714Z,62.02
2018-10-21T02:19:10.738Z,61.93
2018-10-21T02:20:11.018Z,62.02
2018-10-21T02:21:10.920Z,62.41
2018-10-21T02:22:10.818Z,61.93
2018-10-21T02:23:11.092Z,62.54
2018-10-21T02:24:11.122Z,62.02
2018-10-21T02:25:11.150Z,62.41
2018-10-21T02:26:10.974Z,62.41
2018-10-21T02:27:11.364Z,62.22
2018-10-21T02:28:11.295Z,62.51
2018-10-21T02:29:11.258Z,62.6
2018-10-21T02:30:11.285Z,62.22
2018-10-21T02:31:11.057Z,62.6
2018-10-21T02:32:11.087Z,62.31
2018-10-21T02:33:11.694Z,62.41
2018-10-21T02:34:11.141Z,62.41
2018-10-21T02:35:11.419Z,63.28
2018-10-21T02:36:11.443Z,63.28
2018-10-21T02:37:11.215Z,63.18
2018-10-21T02:38:11.245Z,62.51
2018-10-21T02:39:11.274Z,62.41
2018-10-21T02:40:11.297Z,63.18
2018-10-21T02:41:11.576Z,63.37
2018-10-21T02:42:11.601Z,62.99
2018-10-21T02:43:11.631Z,63.09
2018-10-21T02:44:11.665Z,62.89
2018-10-21T02:45:11.932Z,62.99
2018-10-21T02:46:11.715Z,62.7
2018-10-21T02:47:11.485Z,62.79
2018-10-21T02:48:11.763Z,62.99
2018-10-21T02:49:11.795Z,62.89
2018-10-21T02:50:11.566Z,62.89
2018-10-21T02:51:12.019Z,62.99
2018-10-21T02:52:11.882Z,62.79
2018-10-21T02:53:11.894Z,62.99
2018-10-21T02:54:11.923Z,62.89
2018-10-21T02:55:11.700Z,62.89
2018-10-21T02:56:11.733Z,62.99
2018-10-21T02:57:12.159Z,62.89
2018-10-21T02:58:11.777Z,63.09
2018-10-21T02:59:11.809Z,62.99
2018-10-21T03:00:11.829Z,62.79
2018-10-21T03:01:12.108Z,63.18
2018-10-21T03:02:12.145Z,62.99
2018-10-21T03:03:12.032Z,63.28
2018-10-21T03:04:12.190Z,63.47
2018-10-21T03:05:11.963Z,63.57
2018-10-21T03:06:12.253Z,63.47
2018-10-21T03:07:12.014Z,63.28
2018-10-21T03:08:12.045Z,63.09
2018-10-21T03:09:12.104Z,63.28
2018-10-21T03:10:12.096Z,63.28
2018-10-21T03:11:12.124Z,63.18
2018-10-21T03:12:12.402Z,63.28
2018-10-21T03:13:12.177Z,63.47
2018-10-21T03:14:12.202Z,63.37
2018-10-21T03:15:12.718Z,63.57
2018-10-21T03:16:12.506Z,63.09
2018-10-21T03:17:12.540Z,63.57
2018-10-21T03:18:12.701Z,63.57
2018-10-21T03:19:12.640Z,63.57
2018-10-21T03:20:12.617Z,63.57
2018-10-21T03:21:12.794Z,63.47
2018-10-21T03:22:12.669Z,63.37
2018-10-21T03:23:12.703Z,63.37
2018-10-21T03:24:12.720Z,63.47
2018-10-21T03:25:12.751Z,63.28
2018-10-21T03:26:12.784Z,63.18
2018-10-21T03:28:12.829Z,63.18
2018-10-21T03:29:12.863Z,63.37
2018-10-21T03:30:12.887Z,63.37
2018-10-21T03:31:12.912Z,63.37
2018-10-21T03:32:12.692Z,63.57
2018-10-21T03:33:13.319Z,63.47
2018-10-21T03:34:13.048Z,63.47
2018-10-21T03:35:13.020Z,63.37
2018-10-21T03:36:13.047Z,63.37
2018-10-21T03:37:13.065Z,63.57
2018-10-21T03:38:13.091Z,63.37
2018-10-21T03:39:12.871Z,63.37
2018-10-21T03:40:12.990Z,63.37
2018-10-21T03:41:12.923Z,63.76
2018-10-21T03:42:12.953Z,63.67
2018-10-21T03:43:12.980Z,64.05
2018-10-21T03:44:13.257Z,63.67
2018-10-21T03:45:19.297Z,63.85
2018-10-21T03:46:13.455Z,63.47
2018-10-21T03:47:13.085Z,63.57
2018-10-21T03:48:13.109Z,63.37
2018-10-21T03:49:13.391Z,62.99
2018-10-21T03:50:13.411Z,62.31
2018-10-21T03:51:13.436Z,62.7
2018-10-21T03:52:13.329Z,62.41
2018-10-21T03:53:13.496Z,62.41
2018-10-21T03:54:13.268Z,62.6
2018-10-21T03:55:13.291Z,62.99
2018-10-21T03:56:13.317Z,62.89
2018-10-21T03:57:13.347Z,62.79
2018-10-21T03:58:13.800Z,62.89
2018-10-21T03:59:13.400Z,63.37
2018-10-21T04:00:13.429Z,63.28
2018-10-21T04:01:13.452Z,63.47
2018-10-21T04:02:13.730Z,63.28
2018-10-21T04:03:13.507Z,63.57
2018-10-21T04:04:13.912Z,64.34
2018-10-21T04:05:13.560Z,64.05
2018-10-21T04:06:13.839Z,64.24
2018-10-21T04:07:13.614Z,64.63
2018-10-21T04:08:13.890Z,64.34
2018-10-21T04:09:13.922Z,64.63
2018-10-21T04:10:14.130Z,64.53
2018-10-21T04:11:13.978Z,64.82
2018-10-21T04:12:14.008Z,64.82
2018-10-21T04:13:14.028Z,64.63
2018-10-21T04:14:13.995Z,64.82
2018-10-21T04:15:14.075Z,64.63
2018-10-21T04:16:14.421Z,64.53
2018-10-21T04:17:13.880Z,64.63
2018-10-21T04:18:14.162Z,64.53
2018-10-21T04:19:14.186Z,65.11
2018-10-21T04:20:13.959Z,65.11
2018-10-21T04:21:14.239Z,65.11
2018-10-21T04:22:14.104Z,65.4
2018-10-21T04:23:14.291Z,65.01
2018-10-21T04:24:14.069Z,65.3
2018-10-21T04:25:14.095Z,65.3
2018-10-21T04:26:14.122Z,65.11
2018-10-21T04:27:14.147Z,65.3
2018-10-21T04:28:14.690Z,65.2
2018-10-21T04:29:14.202Z,65.3
2018-10-21T04:30:14.235Z,65.3
2018-10-21T04:31:14.256Z,65.2
2018-10-21T04:32:14.282Z,65.11
2018-10-21T04:33:14.558Z,65.4
2018-10-21T04:34:14.417Z,65.3
2018-10-21T04:35:14.681Z,65.4
2018-10-21T04:36:14.389Z,65.2
2018-10-21T04:37:14.422Z,65.5
2018-10-21T04:38:14.440Z,65.59
2018-10-21T04:39:14.725Z,65.59
2018-10-21T04:40:14.566Z,65.78
2018-10-21T04:41:14.520Z,65.69
2018-10-21T04:42:14.804Z,65.78
2018-10-21T04:43:14.828Z,65.78
2018-10-21T04:44:14.604Z,65.78
2018-10-21T04:45:14.883Z,66.17
2018-10-21T04:46:15.139Z,66.17
2018-10-21T04:47:15.243Z,66.36
2018-10-21T04:48:14.964Z,65.98
2018-10-21T04:49:14.738Z,65.69
2018-10-21T04:50:15.015Z,65.59
2018-10-21T04:51:14.790Z,66.27
2018-10-21T04:52:15.294Z,66.08
2018-10-21T04:53:14.848Z,65.98
2018-10-21T04:54:14.876Z,65.78
2018-10-21T04:55:14.899Z,65.98
2018-10-21T04:56:14.929Z,66.27
2018-10-21T04:57:15.203Z,66.08
2018-10-21T04:58:15.489Z,65.11
2018-10-21T04:59:15.004Z,65.2
2018-10-21T05:00:15.036Z,65.2
2018-10-21T05:01:15.312Z,65.3
2018-10-21T05:02:15.340Z,65.4
2018-10-21T05:03:15.120Z,65.3
2018-10-21T05:04:15.223Z,64.92
2018-10-21T05:05:15.418Z,65.14
2018-10-21T05:06:15.196Z,65.4
2018-10-21T05:07:15.473Z,65.4
2018-10-21T05:08:15.248Z,65.34
2018-10-21T05:09:15.526Z,64.95
2018-10-21T05:10:15.683Z,64.63
2018-10-21T05:11:15.578Z,64.76
2018-10-21T05:12:15.608Z,64.66
2018-10-21T05:13:15.632Z,64.28
2018-10-21T05:14:15.664Z,64.37
2018-10-21T05:15:15.740Z,64.18
2018-10-21T05:16:15.935Z,63.98
2018-10-21T05:17:15.744Z,63.4
2018-10-21T05:18:15.518Z,63.5
2018-10-21T05:19:15.546Z,63.21
2018-10-21T05:20:15.831Z,63.31
2018-10-21T05:21:15.848Z,63.31
2018-10-21T05:22:15.667Z,63.31
2018-10-21T05:23:15.651Z,63.5
2018-10-21T05:24:15.677Z,63.5
2018-10-21T05:25:15.962Z,63.7
2018-10-21T05:26:15.731Z,63.5
2018-10-21T05:27:16.011Z,63.21
2018-10-21T05:28:16.228Z,63.4
2018-10-21T05:29:16.062Z,63.4
2018-10-21T05:30:16.090Z,63.7
2018-10-21T05:31:15.869Z,64.18
2018-10-21T05:32:15.894Z,63.79
2018-10-21T05:33:16.173Z,64.47
2018-10-21T05:34:16.318Z,64.28
2018-10-21T05:35:16.228Z,64.76
2018-10-21T05:36:16.313Z,64.86
2018-10-21T05:37:16.278Z,65.14
2018-10-21T05:38:16.052Z,65.05
2018-10-21T05:39:16.340Z,65.43
2018-10-21T05:40:16.219Z,65.43
2018-10-21T05:41:16.394Z,65.34
2018-10-21T05:42:16.161Z,65.14
2018-10-21T05:43:16.191Z,65.34
2018-10-21T05:44:16.470Z,65.53
2018-10-21T05:45:16.247Z,65.43
2018-10-21T05:46:16.363Z,65.63
2018-10-21T05:47:16.753Z,65.34
2018-10-21T05:48:16.582Z,65.82
2018-10-21T05:49:16.353Z,65.82
2018-10-21T05:50:16.627Z,66.2
2018-10-21T05:51:16.409Z,66.11
2018-10-21T05:52:16.536Z,65.91
2018-10-21T05:53:16.459Z,66.11
2018-10-21T05:54:16.484Z,66.4
2018-10-21T05:55:16.762Z,66.2
2018-10-21T05:56:16.794Z,66.49
2018-10-21T05:57:16.564Z,66.59
2018-10-21T05:58:17.031Z,66.59
2018-10-21T05:59:16.870Z,66.3
2018-10-21T06:00:16.931Z,66.59
2018-10-21T06:01:16.675Z,66.4
2018-10-21T06:02:16.704Z,66.3
2018-10-21T06:03:16.728Z,66.11
2018-10-21T06:04:16.965Z,66.2
2018-10-21T06:05:17.033Z,66.11
2018-10-21T06:06:17.060Z,66.11
2018-10-21T06:07:16.836Z,66.3
2018-10-21T06:08:16.866Z,66.11
2018-10-21T06:09:17.145Z,66.01
2018-10-21T06:10:17.412Z,66.11
2018-10-21T06:11:17.198Z,66.01
2018-10-21T06:12:16.969Z,66.01
2018-10-21T06:13:17.248Z,65.82
2018-10-21T06:14:17.276Z,65.82
2018-10-21T06:15:17.051Z,66.2
2018-10-21T06:16:17.593Z,66.3
2018-10-21T06:17:17.108Z,65.82
2018-10-21T06:18:17.385Z,65.82
2018-10-21T06:19:17.419Z,66.01
2018-10-21T06:20:17.188Z,65.53
2018-10-21T06:21:17.470Z,65.63
2018-10-21T06:22:17.773Z,65.82
2018-10-21T06:23:17.519Z,65.24
2018-10-21T06:24:17.548Z,65.14
2018-10-21T06:25:17.320Z,65.47
2018-10-21T06:26:17.600Z,64.86
2018-10-21T06:27:17.379Z,64.95
2018-10-21T06:28:17.655Z,64.66
2018-10-21T06:29:17.681Z,64.5
2018-10-21T06:30:17.708Z,64.37
2018-10-21T06:31:17.809Z,64.28
2018-10-21T06:32:17.764Z,64.01
2018-10-21T06:33:18.048Z,64.21
2018-10-21T06:34:17.822Z,64.4
2018-10-21T06:35:17.604Z,64.01
2018-10-21T06:36:17.880Z,64.31
2018-10-21T06:37:17.654Z,63.92
2018-10-21T06:38:17.930Z,63.43
2018-10-21T06:39:17.823Z,63.43
2018-10-21T06:40:17.729Z,63.43
2018-10-21T06:41:18.006Z,63.53
2018-10-21T06:42:18.033Z,63.43
2018-10-21T06:43:18.058Z,63.63
2018-10-21T06:44:18.088Z,63.43
2018-10-21T06:45:18.504Z,63.63
2018-10-21T06:46:18.144Z,63.73
2018-10-21T06:47:17.915Z,63.82
2018-10-21T06:48:18.292Z,64.11
2018-10-21T06:49:18.221Z,64.59
2018-10-21T06:50:17.998Z,64.4
2018-10-21T06:51:18.028Z,65.17
2018-10-21T06:52:18.301Z,65.47
2018-10-21T06:53:18.329Z,64.98
2018-10-21T06:54:18.107Z,65.72
2018-10-21T06:55:18.385Z,65.82
2018-10-21T06:56:18.499Z,66.11
2018-10-21T06:57:18.888Z,66.11
2018-10-21T06:58:18.216Z,66.49
2018-10-21T06:59:18.241Z,66.49
2018-10-21T07:00:18.519Z,66.78
2018-10-21T07:01:18.546Z,66.78
2018-10-21T07:02:18.574Z,66.59
2018-10-21T07:03:18.599Z,66.49
2018-10-21T07:04:18.820Z,66.59
2018-10-21T07:05:18.660Z,66.59
2018-10-21T07:06:18.683Z,66.69
2018-10-21T07:07:18.708Z,66.88
2018-10-21T07:08:18.483Z,66.53
2018-10-21T07:09:18.509Z,66.59
2018-10-21T07:10:18.977Z,66.4
2018-10-21T07:11:18.818Z,66.69
2018-10-21T07:12:18.844Z,66.78
2018-10-21T07:13:18.871Z,66.59
2018-10-21T07:14:18.900Z,66.63
2018-10-21T07:15:18.720Z,66.4
2018-10-21T07:16:19.422Z,66.3
2018-10-21T07:17:18.975Z,66.3
2018-10-21T07:18:18.754Z,66.3
2018-10-21T07:19:19.035Z,66.01
2018-10-21T07:20:18.801Z,66.01
2018-10-21T07:21:18.848Z,65.82
2018-10-21T07:22:19.288Z,65.72
2018-10-21T07:23:19.141Z,66.24
2018-10-21T07:24:19.169Z,66.11
2018-10-21T07:25:19.196Z,65.91
2018-10-21T07:26:18.971Z,66.11
2018-10-21T07:27:18.997Z,66.01
2018-10-21T07:28:19.538Z,66.01
2018-10-21T07:29:19.052Z,65.82
2018-10-21T07:30:19.076Z,65.72
2018-10-21T07:31:19.354Z,65.43
2018-10-21T07:32:19.381Z,65.63
2018-10-21T07:33:19.410Z,65.63
2018-10-21T07:34:19.668Z,65.43
2018-10-21T07:35:19.469Z,65.24
2018-10-21T07:36:19.715Z,65.14
2018-10-21T07:37:19.519Z,65.27
2018-10-21T07:38:19.543Z,65.37
2018-10-21T07:39:19.579Z,65.47
2018-10-21T07:40:19.888Z,65.24
2018-10-21T07:41:19.630Z,65.66
2018-10-21T07:42:19.404Z,66.33
2018-10-21T07:43:19.427Z,66.33
2018-10-21T07:44:19.713Z,66.82
2018-10-21T07:45:19.485Z,66.97
2018-10-21T07:46:19.936Z,66.69
2018-10-21T07:47:19.788Z,60.8
2018-10-21T07:48:19.569Z,56.84
2018-10-21T07:49:20.025Z,55.88
2018-10-21T07:50:19.871Z,54.43
2018-10-21T07:51:19.897Z,53.66
2018-10-21T07:52:19.947Z,52.4
2018-10-21T07:53:19.948Z,51.73
2018-10-21T07:54:19.731Z,51.92
2018-10-21T07:55:19.767Z,51.73
2018-10-21T07:56:19.788Z,51.63
2018-10-21T07:57:20.055Z,50.26
2018-10-21T07:58:20.363Z,50.57
2018-10-21T07:59:20.111Z,50.26
2018-10-21T08:00:20.139Z,51.22
2018-10-21T08:01:20.257Z,50.74
2018-10-21T08:02:19.938Z,51.22
2018-10-21T08:03:20.216Z,50.64
2018-10-21T08:04:20.000Z,50.26
2018-10-21T08:05:20.272Z,50.35
2018-10-21T08:06:20.298Z,50.45
2018-10-21T08:07:20.326Z,50.26
2018-10-21T08:08:20.351Z,50.23
2018-10-21T08:09:20.384Z,50.42
2018-10-21T08:10:20.156Z,50.04
2018-10-21T08:11:20.179Z,50.13
2018-10-21T08:12:20.462Z,50.04
2018-10-21T08:13:20.483Z,50.42
2018-10-21T08:14:20.271Z,49.84
2018-10-21T08:15:20.303Z,50.13
2018-10-21T08:16:20.714Z,50.32
2018-10-21T08:17:20.341Z,50.62
2018-10-21T08:18:20.368Z,50.23
2018-10-21T08:19:20.647Z,51.2
2018-10-21T08:20:20.677Z,50.59
2018-10-21T08:21:20.981Z,50.78
2018-10-21T08:22:20.480Z,50.59
2018-10-21T08:23:20.502Z,51.29
2018-10-21T08:24:20.532Z,50.98
2018-10-21T08:25:20.562Z,50.88
2018-10-21T08:26:20.833Z,50.69
2018-10-21T08:27:21.316Z,50.98
2018-10-21T08:28:21.203Z,50.59
2018-10-21T08:29:20.913Z,51.17
2018-10-21T08:30:20.687Z,50.78
2018-10-21T08:31:20.970Z,51.46
2018-10-21T08:32:20.991Z,51.36
2018-10-21T08:33:20.769Z,51.46
2018-10-21T08:34:21.296Z,51.75
2018-10-21T08:35:20.822Z,51.65
2018-10-21T08:36:21.145Z,51.75
2018-10-21T08:37:20.871Z,51.65
2018-10-21T08:38:21.154Z,51.75
2018-10-21T08:39:20.933Z,51.94
2018-10-21T08:40:20.952Z,51.84
2018-10-21T08:41:21.231Z,51.65
2018-10-21T08:42:21.010Z,51.75
2018-10-21T08:43:21.282Z,51.46
2018-10-21T08:44:21.315Z,51.65
2018-10-21T08:45:21.335Z,51.46
2018-10-21T08:46:21.678Z,51.75
2018-10-21T08:47:21.435Z,52.04
2018-10-21T08:48:21.420Z,52.71
2018-10-21T08:49:21.869Z,52.81
2018-10-21T08:50:21.472Z,53
2018-10-21T08:51:21.496Z,53.09
2018-10-21T08:52:21.532Z,53.09
2018-10-21T08:53:21.299Z,52.81
2018-10-21T08:54:21.573Z,52.71
2018-10-21T08:55:21.349Z,52.93
2018-10-21T08:56:21.627Z,52.91
2018-10-21T08:57:21.403Z,52.91
2018-10-21T08:58:21.691Z,52.83
2018-10-21T08:59:21.701Z,52.83
2018-10-21T09:00:21.731Z,53.03
2018-10-21T09:01:21.760Z,53.03
2018-10-21T09:02:21.785Z,53.22
2018-10-21T09:03:21.811Z,53.61
2018-10-21T09:04:21.841Z,53.03
2018-10-21T09:05:21.863Z,53.31
2018-10-21T09:06:21.893Z,53.13
2018-10-21T09:07:21.927Z,53.51
2018-10-21T09:08:21.697Z,53.51
2018-10-21T09:09:21.718Z,53.7
2018-10-21T09:10:22.438Z,53.31
2018-10-21T09:11:22.022Z,53.7
2018-10-21T09:12:22.054Z,53.61
2018-10-21T09:13:22.077Z,53.41
2018-10-21T09:14:22.100Z,53.53
2018-10-21T09:15:21.884Z,53.61
2018-10-21T09:16:22.715Z,53.51
2018-10-21T09:17:21.932Z,53.51
2018-10-21T09:18:22.209Z,53.51
2018-10-21T09:19:21.988Z,53.53
2018-10-21T09:20:22.264Z,53.61
2018-10-21T09:21:22.288Z,53.31
2018-10-21T09:22:22.068Z,53.53
2018-10-21T09:23:22.339Z,53.44
2018-10-21T09:24:22.115Z,53.89
2018-10-21T09:25:22.639Z,53.92
2018-10-21T09:26:22.424Z,53.92
2018-10-21T09:27:22.196Z,53.63
2018-10-21T09:28:22.481Z,53.73
2018-10-21T09:29:22.249Z,53.73
2018-10-21T09:30:22.273Z,53.92
2018-10-21T09:31:22.557Z,53.73
2018-10-21T09:32:22.579Z,53.73
2018-10-21T09:33:22.446Z,53.92
2018-10-21T09:34:22.892Z,54.02
2018-10-21T09:35:22.410Z,53.73
2018-10-21T09:36:22.694Z,53.92
2018-10-21T09:37:22.718Z,53.92
2018-10-21T09:38:22.740Z,53.83
2018-10-21T09:39:22.766Z,53.83
2018-10-21T09:40:23.026Z,54.02
2018-10-21T09:41:22.826Z,53.92
2018-10-21T09:42:23.114Z,53.63
2018-10-21T09:43:22.624Z,54.02
2018-10-21T09:44:22.649Z,53.83
2018-10-21T09:45:22.673Z,53.92
2018-10-21T09:46:22.706Z,54.02
2018-10-21T09:47:22.979Z,53.83
2018-10-21T09:48:23.006Z,54.02
2018-10-21T09:49:23.038Z,53.92
2018-10-21T09:50:23.058Z,54.02
2018-10-21T09:51:23.096Z,54.02
2018-10-21T09:52:23.120Z,54.02
2018-10-21T09:53:23.143Z,53.73
2018-10-21T09:54:22.914Z,53.92
2018-10-21T09:55:22.943Z,53.83
2018-10-21T09:56:22.970Z,53.73
2018-10-21T09:57:22.990Z,53.73
2018-10-21T09:58:23.478Z,54.98
2018-10-21T09:59:23.048Z,54.79
2018-10-21T10:00:23.333Z,54.79
2018-10-21T10:01:23.358Z,54.79
2018-10-21T10:02:23.380Z,55.36
2018-10-21T10:03:23.154Z,54.79
2018-10-21T10:04:23.607Z,54.98
2018-10-21T10:05:23.707Z,55.44
2018-10-21T10:06:23.233Z,55.34
2018-10-21T10:07:23.267Z,55.73
2018-10-21T10:08:23.543Z,55.18
2018-10-21T10:09:23.572Z,55.27
2018-10-21T10:10:23.598Z,55.56
2018-10-21T10:11:23.370Z,55.73
2018-10-21T10:12:23.394Z,56.04
2018-10-21T10:13:23.676Z,55.63
2018-10-21T10:14:23.699Z,56.01
2018-10-21T10:15:23.469Z,55.54
2018-10-21T10:16:23.501Z,55.56
2018-10-21T10:17:23.784Z,55.82
2018-10-21T10:18:23.811Z,56.14
2018-10-21T10:19:23.828Z,56.21
2018-10-21T10:20:23.858Z,56.01
2018-10-21T10:21:23.882Z,55.92
2018-10-21T10:22:23.659Z,55.73
2018-10-21T10:23:24.075Z,56.21
2018-10-21T10:24:23.712Z,56.11
2018-10-21T10:25:23.737Z,56.11
2018-10-21T10:26:24.016Z,56.21
2018-10-21T10:27:23.792Z,56.21
2018-10-21T10:28:23.818Z,56.3
2018-10-21T10:29:23.843Z,56.04
2018-10-21T10:30:23.950Z,56.49
2018-10-21T10:31:24.149Z,56.59
2018-10-21T10:32:24.178Z,56.62
2018-10-21T10:33:24.198Z,56.43
2018-10-21T10:34:24.225Z,56.52
2018-10-21T10:35:24.266Z,56.4
2018-10-21T10:36:24.609Z,56.52
2018-10-21T10:37:24.312Z,56.59
2018-10-21T10:38:24.085Z,56.81
2018-10-21T10:39:24.362Z,56.81
2018-10-21T10:40:24.389Z,56.59
2018-10-21T10:41:24.409Z,56.72
2018-10-21T10:42:24.204Z,56.4
2018-10-21T10:43:24.221Z,56.62
2018-10-21T10:44:24.244Z,55.94
2018-10-21T10:45:24.270Z,56.33
2018-10-21T10:46:24.302Z,56.24
2018-10-21T10:47:24.319Z,56.24
2018-10-21T10:48:24.347Z,56.04
2018-10-21T10:49:24.373Z,56.21
2018-10-21T10:50:24.662Z,56.69
2018-10-21T10:51:24.681Z,56.52
2018-10-21T10:52:24.711Z,56.49
2018-10-21T10:53:24.484Z,56.62
2018-10-21T10:54:24.508Z,56.72
2018-10-21T10:55:24.791Z,56.62
2018-10-21T10:56:24.810Z,56.72
2018-10-21T10:57:24.595Z,56.69
2018-10-21T10:58:24.617Z,56.62
2018-10-21T10:59:24.666Z,56.81
2018-10-21T11:00:24.921Z,56.91
2018-10-21T11:01:24.691Z,56.72
2018-10-21T11:02:24.971Z,56.24
2018-10-21T11:03:25.039Z,56.43
2018-10-21T11:04:25.026Z,56.33
2018-10-21T11:05:24.799Z,56.33
2018-10-21T11:06:25.335Z,56.33
2018-10-21T11:07:25.104Z,56.33
2018-10-21T11:08:25.138Z,56.33
2018-10-21T11:09:24.909Z,56.33
2018-10-21T11:10:25.190Z,56.33
2018-10-21T11:11:25.169Z,56.52
2018-10-21T11:12:25.248Z,56.43
2018-10-21T11:13:25.264Z,56.52
2018-10-21T11:14:25.044Z,56.52
2018-10-21T11:15:25.319Z,56.24
2018-10-21T11:16:25.352Z,56.24
2018-10-21T11:17:25.373Z,56.24
2018-10-21T11:18:25.400Z,56.24
2018-10-21T11:19:25.431Z,56.43
2018-10-21T11:20:25.201Z,56.43
2018-10-21T11:21:25.228Z,56.43
2018-10-21T11:22:25.383Z,56.52
2018-10-21T11:23:25.536Z,56.81
2018-10-21T11:24:25.565Z,56.24
2018-10-21T11:25:25.336Z,56.43
2018-10-21T11:26:25.615Z,56.43
2018-10-21T11:27:25.385Z,56.14
2018-10-21T11:28:25.663Z,56.24
2018-10-21T11:29:25.438Z,56.24
2018-10-21T11:30:25.471Z,56.14
2018-10-21T11:31:25.753Z,56.14
2018-10-21T11:32:25.527Z,56.72
2018-10-21T11:33:25.797Z,56.14
2018-10-21T11:34:25.833Z,56.43
2018-10-21T11:35:25.596Z,56.52
2018-10-21T11:36:25.634Z,56.72
2018-10-21T11:37:25.846Z,56.52
2018-10-21T11:38:25.928Z,56.33
2018-10-21T11:39:25.706Z,56.33
2018-10-21T11:40:25.738Z,56.43
2018-10-21T11:41:26.015Z,56.33
2018-10-21T11:42:25.784Z,56.43
2018-10-21T11:43:26.066Z,56.72
2018-10-21T11:44:25.840Z,56.33
2018-10-21T11:45:26.152Z,56.72
2018-10-21T11:46:26.349Z,56.81
2018-10-21T11:47:26.179Z,56.72
2018-10-21T11:48:25.978Z,56.72
2018-10-21T11:49:26.235Z,56.91
2018-10-21T11:50:26.254Z,56.72
2018-10-21T11:51:26.029Z,56.81
2018-10-21T11:52:26.133Z,56.62
2018-10-21T11:53:26.332Z,56.43
2018-10-21T11:54:26.358Z,56.33
2018-10-21T11:55:26.136Z,56.52
2018-10-21T11:56:26.412Z,56.43
2018-10-21T11:57:26.189Z,56.43
2018-10-21T11:58:26.466Z,56.33
2018-10-21T11:59:26.493Z,56.24
2018-10-21T12:00:26.268Z,56.62
2018-10-21T12:01:26.297Z,56.43
2018-10-21T12:02:26.578Z,56.14
2018-10-21T12:03:26.599Z,56.04
2018-10-21T12:04:26.630Z,56.43
2018-10-21T12:05:26.403Z,56.04
2018-10-21T12:06:26.685Z,56.24
2018-10-21T12:07:26.706Z,56.72
2018-10-21T12:08:26.733Z,56.72
2018-10-21T12:09:26.508Z,55.94
2018-10-21T12:10:26.535Z,56.62
2018-10-21T12:11:26.816Z,56.04
2018-10-21T12:12:26.586Z,56.72
2018-10-21T12:13:26.618Z,56.62
2018-10-21T12:14:26.895Z,56.52
2018-10-21T12:15:26.920Z,56.43
2018-10-21T12:16:26.698Z,56.52
2018-10-21T12:17:26.725Z,56.74
2018-10-21T12:18:27.004Z,56.65
2018-10-21T12:19:26.772Z,56.74
2018-10-21T12:20:27.052Z,56.43
2018-10-21T12:21:26.828Z,56.72
2018-10-21T12:22:26.901Z,56.33
2018-10-21T12:23:26.916Z,56.91
2018-10-21T12:24:27.169Z,56.65
2018-10-21T12:25:26.975Z,55.98
2018-10-21T12:26:26.959Z,55.88
2018-10-21T12:27:27.242Z,56.07
2018-10-21T12:28:27.016Z,55.78
2018-10-21T12:29:27.047Z,55.88
2018-10-21T12:30:27.067Z,56.07
2018-10-21T12:31:27.353Z,55.98
2018-10-21T12:32:27.376Z,56.07
2018-10-21T12:33:27.405Z,55.98
2018-10-21T12:34:27.432Z,55.66
2018-10-21T12:35:27.455Z,55.49
2018-10-21T12:36:27.482Z,55.4
2018-10-21T12:37:27.503Z,55.1
2018-10-21T12:38:27.280Z,54.91
2018-10-21T12:39:27.308Z,55.01
2018-10-21T12:40:27.588Z,54.62
2018-10-21T12:41:27.617Z,54.53
2018-10-21T12:42:27.398Z,54.14
2018-10-21T12:43:27.415Z,53.73
2018-10-21T12:44:27.445Z,53.75
2018-10-21T12:45:27.859Z,54.24
2018-10-21T12:46:27.501Z,53.85
2018-10-21T12:47:27.779Z,54.14
2018-10-21T12:48:27.801Z,53.85
2018-10-21T12:49:27.832Z,53.85
2018-10-21T12:50:27.859Z,53.75
2018-10-21T12:51:27.880Z,53.95
2018-10-21T12:52:27.908Z,53.92
2018-10-21T12:53:27.935Z,53.92
2018-10-21T12:54:27.734Z,54.69
2018-10-21T12:55:27.781Z,54.4
2018-10-21T12:56:28.015Z,54.62